sensor_id;sensor_type;location;lat;lon;timestamp;P1;durP1;ratioP1;P2;durP2;ratioP2
64075;SDS011;50327;51.328;12.324;2023-02-18T00:02:01;3.83;;;1.60;;
64075;SDS011;50327;51.328;12.324;2023-02-18T00:04:27;5.63;;;1.67;;
64075;SDS011;50327;51.328;12.324;2023-02-18T00:06:52;8.55;;;1.80;;
64075;SDS011;50327;51.328;12.324;2023-02-18T00:09:18;5.28;;;1.65;;
64075;SDS011;50327;51.328;12.324;2023-02-18T00:11:43;10.52;;;1.80;;
64075;SDS011;50327;51.328;12.324;2023-02-18T00:14:10;6.57;;;1.20;;
64075;SDS011;50327;51.328;12.324;2023-02-18T00:16:37;9.00;;;1.60;;
64075;SDS011;50327;51.328;12.324;2023-02-18T00:19:04;5.25;;;1.30;;
64075;SDS011;50327;51.328;12.324;2023-02-18T00:21:31;3.75;;;1.08;;
64075;SDS011;50327;51.328;12.324;2023-02-18T00:23:58;5.13;;;1.08;;
64075;SDS011;50327;51.328;12.324;2023-02-18T00:26:23;6.80;;;1.48;;
64075;SDS011;50327;51.328;12.324;2023-02-18T00:28:49;7.90;;;1.27;;
64075;SDS011;50327;51.328;12.324;2023-02-18T00:31:19;7.03;;;1.02;;
64075;SDS011;50327;51.328;12.324;2023-02-18T00:33:50;6.95;;;1.42;;
64075;SDS011;50327;51.328;12.324;2023-02-18T00:36:16;5.75;;;1.23;;
64075;SDS011;50327;51.328;12.324;2023-02-18T00:38:44;5.28;;;1.30;;
64075;SDS011;50327;51.328;12.324;2023-02-18T00:41:13;6.45;;;1.65;;
64075;SDS011;50327;51.328;12.324;2023-02-18T00:43:39;7.70;;;1.35;;
64075;SDS011;50327;51.328;12.324;2023-02-18T00:46:04;11.88;;;1.58;;
64075;SDS011;50327;51.328;12.324;2023-02-18T00:48:30;2.97;;;0.98;;
64075;SDS011;50327;51.328;12.324;2023-02-18T00:50:56;8.55;;;1.25;;
64075;SDS011;50327;51.328;12.324;2023-02-18T00:53:21;5.68;;;1.23;;
64075;SDS011;50327;51.328;12.324;2023-02-18T00:55:47;3.08;;;1.10;;
64075;SDS011;50327;51.328;12.324;2023-02-18T00:58:12;4.63;;;1.20;;
64075;SDS011;50327;51.328;12.324;2023-02-18T01:00:38;2.65;;;1.23;;
64075;SDS011;50327;51.328;12.324;2023-02-18T01:03:04;7.43;;;1.52;;
64075;SDS011;50327;51.328;12.324;2023-02-18T01:05:33;8.98;;;1.55;;
64075;SDS011;50327;51.328;12.324;2023-02-18T01:07:59;5.78;;;1.38;;
64075;SDS011;50327;51.328;12.324;2023-02-18T01:10:25;10.45;;;1.60;;
64075;SDS011;50327;51.328;12.324;2023-02-18T01:12:51;7.05;;;1.15;;
64075;SDS011;50327;51.328;12.324;2023-02-18T01:15:17;6.75;;;1.40;;
64075;SDS011;50327;51.328;12.324;2023-02-18T01:17:42;7.43;;;1.25;;
64075;SDS011;50327;51.328;12.324;2023-02-18T01:20:08;6.68;;;1.17;;
64075;SDS011;50327;51.328;12.324;2023-02-18T01:22:35;7.93;;;1.67;;
64075;SDS011;50327;51.328;12.324;2023-02-18T01:25:01;6.68;;;1.58;;
64075;SDS011;50327;51.328;12.324;2023-02-18T01:27:27;7.20;;;1.23;;
64075;SDS011;50327;51.328;12.324;2023-02-18T01:29:53;8.27;;;1.77;;
64075;SDS011;50327;51.328;12.324;2023-02-18T01:32:18;7.63;;;1.38;;
64075;SDS011;50327;51.328;12.324;2023-02-18T01:34:44;4.78;;;1.25;;
64075;SDS011;50327;51.328;12.324;2023-02-18T01:37:09;13.77;;;1.90;;
64075;SDS011;50327;51.328;12.324;2023-02-18T01:39:34;8.68;;;1.20;;
64075;SDS011;50327;51.328;12.324;2023-02-18T01:42:00;6.43;;;1.63;;
64075;SDS011;50327;51.328;12.324;2023-02-18T01:44:26;6.30;;;1.48;;
64075;SDS011;50327;51.328;12.324;2023-02-18T01:46:52;5.85;;;1.27;;
64075;SDS011;50327;51.328;12.324;2023-02-18T01:49:22;4.95;;;1.33;;
64075;SDS011;50327;51.328;12.324;2023-02-18T01:51:53;3.55;;;1.13;;
64075;SDS011;50327;51.328;12.324;2023-02-18T01:57:01;9.48;;;1.50;;
64075;SDS011;50327;51.328;12.324;2023-02-18T01:59:32;6.40;;;1.35;;
64075;SDS011;50327;51.328;12.324;2023-02-18T02:02:01;4.97;;;1.10;;
64075;SDS011;50327;51.328;12.324;2023-02-18T02:04:28;6.18;;;1.35;;
64075;SDS011;50327;51.328;12.324;2023-02-18T02:06:53;7.57;;;1.25;;
64075;SDS011;50327;51.328;12.324;2023-02-18T02:09:19;8.02;;;1.45;;
64075;SDS011;50327;51.328;12.324;2023-02-18T02:22:50;10.10;;;1.95;;
64075;SDS011;50327;51.328;12.324;2023-02-18T02:34:31;9.55;;;1.27;;
64075;SDS011;50327;51.328;12.324;2023-02-18T02:37:01;7.78;;;1.40;;
64075;SDS011;50327;51.328;12.324;2023-02-18T02:42:29;6.18;;;1.90;;
64075;SDS011;50327;51.328;12.324;2023-02-18T02:45:20;9.25;;;1.58;;
64075;SDS011;50327;51.328;12.324;2023-02-18T02:53:05;8.90;;;1.38;;
64075;SDS011;50327;51.328;12.324;2023-02-18T02:55:40;4.38;;;1.40;;
64075;SDS011;50327;51.328;12.324;2023-02-18T02:58:05;9.23;;;1.65;;
64075;SDS011;50327;51.328;12.324;2023-02-18T03:00:37;7.60;;;1.73;;
64075;SDS011;50327;51.328;12.324;2023-02-18T03:05:43;6.55;;;1.60;;
64075;SDS011;50327;51.328;12.324;2023-02-18T03:11:18;7.65;;;1.67;;
64075;SDS011;50327;51.328;12.324;2023-02-18T03:13:50;10.60;;;2.35;;
64075;SDS011;50327;51.328;12.324;2023-02-18T03:16:34;7.80;;;1.38;;
64075;SDS011;50327;51.328;12.324;2023-02-18T03:22:06;12.00;;;2.05;;
64075;SDS011;50327;51.328;12.324;2023-02-18T03:24:37;10.18;;;1.50;;
64075;SDS011;50327;51.328;12.324;2023-02-18T03:27:07;7.05;;;1.58;;
64075;SDS011;50327;51.328;12.324;2023-02-18T03:29:37;6.90;;;1.65;;
64075;SDS011;50327;51.328;12.324;2023-02-18T03:32:05;10.98;;;1.70;;
64075;SDS011;50327;51.328;12.324;2023-02-18T03:34:38;9.70;;;1.45;;
64075;SDS011;50327;51.328;12.324;2023-02-18T03:37:07;7.78;;;1.80;;
64075;SDS011;50327;51.328;12.324;2023-02-18T03:39:34;7.60;;;1.40;;
64075;SDS011;50327;51.328;12.324;2023-02-18T03:42:01;5.97;;;1.33;;
64075;SDS011;50327;51.328;12.324;2023-02-18T03:44:29;9.40;;;1.55;;
64075;SDS011;50327;51.328;12.324;2023-02-18T03:46:55;12.05;;;1.63;;
64075;SDS011;50327;51.328;12.324;2023-02-18T03:49:20;5.15;;;1.30;;
64075;SDS011;50327;51.328;12.324;2023-02-18T03:51:46;4.63;;;1.17;;
64075;SDS011;50327;51.328;12.324;2023-02-18T03:54:12;5.82;;;1.38;;
64075;SDS011;50327;51.328;12.324;2023-02-18T03:56:38;5.93;;;1.75;;
64075;SDS011;50327;51.328;12.324;2023-02-18T03:59:04;5.15;;;1.75;;
64075;SDS011;50327;51.328;12.324;2023-02-18T04:01:29;7.65;;;1.70;;
64075;SDS011;50327;51.328;12.324;2023-02-18T04:03:55;10.63;;;2.00;;
64075;SDS011;50327;51.328;12.324;2023-02-18T04:06:21;12.93;;;1.98;;
64075;SDS011;50327;51.328;12.324;2023-02-18T04:08:47;4.18;;;1.65;;
64075;SDS011;50327;51.328;12.324;2023-02-18T04:11:13;9.43;;;1.88;;
64075;SDS011;50327;51.328;12.324;2023-02-18T04:13:38;10.98;;;2.13;;
64075;SDS011;50327;51.328;12.324;2023-02-18T04:16:04;10.20;;;2.65;;
64075;SDS011;50327;51.328;12.324;2023-02-18T04:18:29;8.63;;;1.92;;
64075;SDS011;50327;51.328;12.324;2023-02-18T04:20:55;8.43;;;1.83;;
64075;SDS011;50327;51.328;12.324;2023-02-18T04:23:20;10.30;;;1.95;;
64075;SDS011;50327;51.328;12.324;2023-02-18T04:25:45;16.60;;;3.95;;
64075;SDS011;50327;51.328;12.324;2023-02-18T04:28:12;11.48;;;2.53;;
64075;SDS011;50327;51.328;12.324;2023-02-18T04:30:40;11.95;;;2.20;;
64075;SDS011;50327;51.328;12.324;2023-02-18T04:33:06;15.77;;;2.42;;
64075;SDS011;50327;51.328;12.324;2023-02-18T04:35:32;13.55;;;3.33;;
64075;SDS011;50327;51.328;12.324;2023-02-18T04:37:57;16.42;;;2.58;;
64075;SDS011;50327;51.328;12.324;2023-02-18T04:40:22;6.90;;;2.00;;
64075;SDS011;50327;51.328;12.324;2023-02-18T04:42:49;13.27;;;2.47;;
64075;SDS011;50327;51.328;12.324;2023-02-18T04:45:15;14.27;;;3.72;;
64075;SDS011;50327;51.328;12.324;2023-02-18T04:47:40;27.23;;;3.42;;
64075;SDS011;50327;51.328;12.324;2023-02-18T04:50:05;15.32;;;3.13;;
64075;SDS011;50327;51.328;12.324;2023-02-18T04:52:31;10.25;;;2.80;;
64075;SDS011;50327;51.328;12.324;2023-02-18T04:54:57;10.73;;;3.08;;
64075;SDS011;50327;51.328;12.324;2023-02-18T04:57:22;17.75;;;4.07;;
64075;SDS011;50327;51.328;12.324;2023-02-18T04:59:47;10.65;;;3.53;;
64075;SDS011;50327;51.328;12.324;2023-02-18T05:02:13;14.98;;;4.13;;
64075;SDS011;50327;51.328;12.324;2023-02-18T05:04:38;18.73;;;5.05;;
64075;SDS011;50327;51.328;12.324;2023-02-18T05:07:03;13.90;;;4.95;;
64075;SDS011;50327;51.328;12.324;2023-02-18T05:09:29;12.80;;;4.60;;
64075;SDS011;50327;51.328;12.324;2023-02-18T05:11:54;18.63;;;5.28;;
64075;SDS011;50327;51.328;12.324;2023-02-18T05:14:20;10.38;;;4.40;;
64075;SDS011;50327;51.328;12.324;2023-02-18T05:16:45;15.82;;;4.75;;
64075;SDS011;50327;51.328;12.324;2023-02-18T05:19:14;16.13;;;4.90;;
64075;SDS011;50327;51.328;12.324;2023-02-18T05:21:40;16.65;;;5.88;;
64075;SDS011;50327;51.328;12.324;2023-02-18T05:24:05;18.48;;;5.82;;
64075;SDS011;50327;51.328;12.324;2023-02-18T05:26:32;13.07;;;5.32;;
64075;SDS011;50327;51.328;12.324;2023-02-18T05:28:57;15.60;;;6.03;;
64075;SDS011;50327;51.328;12.324;2023-02-18T05:31:22;13.27;;;5.60;;
64075;SDS011;50327;51.328;12.324;2023-02-18T05:33:48;14.07;;;6.40;;
64075;SDS011;50327;51.328;12.324;2023-02-18T05:36:13;14.32;;;6.28;;
64075;SDS011;50327;51.328;12.324;2023-02-18T05:38:38;17.92;;;7.35;;
64075;SDS011;50327;51.328;12.324;2023-02-18T05:41:04;13.70;;;6.72;;
64075;SDS011;50327;51.328;12.324;2023-02-18T05:43:29;14.90;;;6.32;;
64075;SDS011;50327;51.328;12.324;2023-02-18T05:45:55;14.88;;;6.82;;
64075;SDS011;50327;51.328;12.324;2023-02-18T05:48:20;16.15;;;6.93;;
64075;SDS011;50327;51.328;12.324;2023-02-18T05:50:45;15.77;;;7.20;;
64075;SDS011;50327;51.328;12.324;2023-02-18T05:53:11;18.30;;;6.05;;
64075;SDS011;50327;51.328;12.324;2023-02-18T05:55:36;20.35;;;7.10;;
64075;SDS011;50327;51.328;12.324;2023-02-18T05:58:03;16.00;;;6.80;;
64075;SDS011;50327;51.328;12.324;2023-02-18T06:00:29;13.57;;;6.85;;
64075;SDS011;50327;51.328;12.324;2023-02-18T06:02:56;19.92;;;7.47;;
64075;SDS011;50327;51.328;12.324;2023-02-18T06:05:22;16.42;;;6.57;;
64075;SDS011;50327;51.328;12.324;2023-02-18T06:07:47;19.75;;;8.15;;
64075;SDS011;50327;51.328;12.324;2023-02-18T06:10:13;17.40;;;6.38;;
64075;SDS011;50327;51.328;12.324;2023-02-18T06:12:38;17.50;;;7.43;;
64075;SDS011;50327;51.328;12.324;2023-02-18T06:15:04;16.77;;;8.10;;
64075;SDS011;50327;51.328;12.324;2023-02-18T06:17:30;16.38;;;7.78;;
64075;SDS011;50327;51.328;12.324;2023-02-18T06:19:55;17.30;;;8.02;;
64075;SDS011;50327;51.328;12.324;2023-02-18T06:22:21;18.83;;;8.65;;
64075;SDS011;50327;51.328;12.324;2023-02-18T06:24:46;19.15;;;8.52;;
64075;SDS011;50327;51.328;12.324;2023-02-18T06:27:11;16.80;;;8.27;;
64075;SDS011;50327;51.328;12.324;2023-02-18T06:29:37;24.77;;;8.43;;
64075;SDS011;50327;51.328;12.324;2023-02-18T06:32:02;22.10;;;8.82;;
64075;SDS011;50327;51.328;12.324;2023-02-18T06:34:28;22.77;;;9.57;;
64075;SDS011;50327;51.328;12.324;2023-02-18T06:36:53;18.13;;;8.50;;
64075;SDS011;50327;51.328;12.324;2023-02-18T06:39:19;22.52;;;9.27;;
64075;SDS011;50327;51.328;12.324;2023-02-18T06:41:44;18.90;;;7.70;;
64075;SDS011;50327;51.328;12.324;2023-02-18T06:44:09;17.27;;;7.63;;
64075;SDS011;50327;51.328;12.324;2023-02-18T06:46:35;17.38;;;7.32;;
64075;SDS011;50327;51.328;12.324;2023-02-18T06:49:01;14.73;;;6.45;;
64075;SDS011;50327;51.328;12.324;2023-02-18T06:51:26;14.05;;;6.43;;
64075;SDS011;50327;51.328;12.324;2023-02-18T06:53:52;18.88;;;6.43;;
64075;SDS011;50327;51.328;12.324;2023-02-18T06:56:17;15.10;;;6.65;;
64075;SDS011;50327;51.328;12.324;2023-02-18T06:58:42;12.57;;;6.90;;
64075;SDS011;50327;51.328;12.324;2023-02-18T07:01:08;14.90;;;6.57;;
64075;SDS011;50327;51.328;12.324;2023-02-18T07:03:33;18.75;;;7.88;;
64075;SDS011;50327;51.328;12.324;2023-02-18T07:05:59;13.30;;;6.88;;
64075;SDS011;50327;51.328;12.324;2023-02-18T07:08:24;13.10;;;6.20;;
64075;SDS011;50327;51.328;12.324;2023-02-18T07:10:50;12.18;;;6.05;;
64075;SDS011;50327;51.328;12.324;2023-02-18T07:13:15;12.75;;;6.63;;
64075;SDS011;50327;51.328;12.324;2023-02-18T07:15:41;16.95;;;6.45;;
64075;SDS011;50327;51.328;12.324;2023-02-18T07:18:06;19.38;;;6.55;;
64075;SDS011;50327;51.328;12.324;2023-02-18T07:20:32;13.20;;;6.25;;
64075;SDS011;50327;51.328;12.324;2023-02-18T07:22:57;17.45;;;6.50;;
64075;SDS011;50327;51.328;12.324;2023-02-18T07:25:23;17.40;;;7.38;;
64075;SDS011;50327;51.328;12.324;2023-02-18T07:27:49;14.80;;;5.95;;
64075;SDS011;50327;51.328;12.324;2023-02-18T07:30:15;11.35;;;6.03;;
64075;SDS011;50327;51.328;12.324;2023-02-18T07:32:41;11.45;;;5.43;;
64075;SDS011;50327;51.328;12.324;2023-02-18T07:35:07;11.85;;;6.18;;
64075;SDS011;50327;51.328;12.324;2023-02-18T07:37:34;12.65;;;5.82;;
64075;SDS011;50327;51.328;12.324;2023-02-18T07:39:59;11.27;;;6.45;;
64075;SDS011;50327;51.328;12.324;2023-02-18T07:42:25;12.18;;;6.18;;
64075;SDS011;50327;51.328;12.324;2023-02-18T07:44:50;11.50;;;5.57;;
64075;SDS011;50327;51.328;12.324;2023-02-18T07:47:16;10.27;;;5.25;;
64075;SDS011;50327;51.328;12.324;2023-02-18T07:49:45;13.60;;;5.75;;
64075;SDS011;50327;51.328;12.324;2023-02-18T07:52:10;13.07;;;5.80;;
64075;SDS011;50327;51.328;12.324;2023-02-18T07:54:36;12.27;;;5.40;;
64075;SDS011;50327;51.328;12.324;2023-02-18T07:57:01;9.93;;;4.85;;
64075;SDS011;50327;51.328;12.324;2023-02-18T07:59:27;13.57;;;6.20;;
64075;SDS011;50327;51.328;12.324;2023-02-18T08:01:52;13.57;;;4.55;;
64075;SDS011;50327;51.328;12.324;2023-02-18T08:04:18;9.88;;;5.43;;
64075;SDS011;50327;51.328;12.324;2023-02-18T08:06:44;8.07;;;4.50;;
64075;SDS011;50327;51.328;12.324;2023-02-18T08:09:11;7.30;;;3.88;;
64075;SDS011;50327;51.328;12.324;2023-02-18T08:11:37;7.63;;;3.92;;
64075;SDS011;50327;51.328;12.324;2023-02-18T08:14:03;9.50;;;3.58;;
64075;SDS011;50327;51.328;12.324;2023-02-18T08:16:28;7.43;;;3.40;;
64075;SDS011;50327;51.328;12.324;2023-02-18T08:18:54;4.82;;;2.75;;
64075;SDS011;50327;51.328;12.324;2023-02-18T08:21:21;4.78;;;2.35;;
64075;SDS011;50327;51.328;12.324;2023-02-18T08:23:48;5.30;;;2.17;;
64075;SDS011;50327;51.328;12.324;2023-02-18T08:26:14;5.22;;;2.10;;
64075;SDS011;50327;51.328;12.324;2023-02-18T08:28:39;4.55;;;2.15;;
64075;SDS011;50327;51.328;12.324;2023-02-18T08:31:05;5.53;;;1.90;;
64075;SDS011;50327;51.328;12.324;2023-02-18T08:33:31;5.65;;;1.55;;
64075;SDS011;50327;51.328;12.324;2023-02-18T08:35:57;5.53;;;1.75;;
64075;SDS011;50327;51.328;12.324;2023-02-18T08:38:23;5.07;;;1.48;;
64075;SDS011;50327;51.328;12.324;2023-02-18T08:40:49;2.65;;;1.40;;
64075;SDS011;50327;51.328;12.324;2023-02-18T08:43:16;3.30;;;1.33;;
64075;SDS011;50327;51.328;12.324;2023-02-18T08:45:42;2.75;;;1.50;;
64075;SDS011;50327;51.328;12.324;2023-02-18T08:48:09;3.67;;;1.52;;
64075;SDS011;50327;51.328;12.324;2023-02-18T08:50:36;2.10;;;0.90;;
64075;SDS011;50327;51.328;12.324;2023-02-18T08:53:02;1.45;;;0.90;;
64075;SDS011;50327;51.328;12.324;2023-02-18T08:55:28;1.35;;;1.00;;
64075;SDS011;50327;51.328;12.324;2023-02-18T08:57:54;2.40;;;1.42;;
64075;SDS011;50327;51.328;12.324;2023-02-18T09:00:20;1.83;;;0.95;;
64075;SDS011;50327;51.328;12.324;2023-02-18T09:02:45;1.50;;;0.90;;
64075;SDS011;50327;51.328;12.324;2023-02-18T09:05:11;4.25;;;1.30;;
64075;SDS011;50327;51.328;12.324;2023-02-18T09:07:37;2.70;;;0.88;;
64075;SDS011;50327;51.328;12.324;2023-02-18T09:10:03;1.58;;;0.82;;
64075;SDS011;50327;51.328;12.324;2023-02-18T09:12:28;1.55;;;0.77;;
64075;SDS011;50327;51.328;12.324;2023-02-18T09:14:54;1.85;;;0.80;;
64075;SDS011;50327;51.328;12.324;2023-02-18T09:17:19;1.85;;;0.80;;
64075;SDS011;50327;51.328;12.324;2023-02-18T09:19:45;1.33;;;0.70;;
64075;SDS011;50327;51.328;12.324;2023-02-18T09:22:10;1.20;;;0.90;;
64075;SDS011;50327;51.328;12.324;2023-02-18T09:24:37;1.75;;;0.63;;
64075;SDS011;50327;51.328;12.324;2023-02-18T09:27:03;1.20;;;0.80;;
64075;SDS011;50327;51.328;12.324;2023-02-18T09:29:29;2.08;;;1.02;;
64075;SDS011;50327;51.328;12.324;2023-02-18T09:31:59;2.28;;;0.80;;
64075;SDS011;50327;51.328;12.324;2023-02-18T09:34:25;1.52;;;0.88;;
64075;SDS011;50327;51.328;12.324;2023-02-18T09:36:51;2.15;;;0.80;;
64075;SDS011;50327;51.328;12.324;2023-02-18T09:39:16;3.50;;;1.30;;
64075;SDS011;50327;51.328;12.324;2023-02-18T09:44:18;0.80;;;0.60;;
64075;SDS011;50327;51.328;12.324;2023-02-18T09:46:53;0.68;;;0.65;;
64075;SDS011;50327;51.328;12.324;2023-02-18T09:49:30;0.85;;;0.60;;
64075;SDS011;50327;51.328;12.324;2023-02-18T09:52:35;0.82;;;0.60;;
64075;SDS011;50327;51.328;12.324;2023-02-18T09:54:54;1.00;;;0.55;;
64075;SDS011;50327;51.328;12.324;2023-02-18T10:00:34;1.38;;;0.70;;
64075;SDS011;50327;51.328;12.324;2023-02-18T10:05:29;1.63;;;0.60;;
64075;SDS011;50327;51.328;12.324;2023-02-18T10:08:01;0.60;;;0.60;;
64075;SDS011;50327;51.328;12.324;2023-02-18T10:10:40;0.60;;;0.52;;
64075;SDS011;50327;51.328;12.324;2023-02-18T10:13:11;0.80;;;0.70;;
64075;SDS011;50327;51.328;12.324;2023-02-18T10:15:39;1.25;;;0.60;;
64075;SDS011;50327;51.328;12.324;2023-02-18T10:18:05;1.17;;;0.55;;
64075;SDS011;50327;51.328;12.324;2023-02-18T10:20:43;0.57;;;0.40;;
64075;SDS011;50327;51.328;12.324;2023-02-18T10:23:09;0.90;;;0.60;;
64075;SDS011;50327;51.328;12.324;2023-02-18T10:25:37;1.73;;;0.50;;
64075;SDS011;50327;51.328;12.324;2023-02-18T10:28:08;2.25;;;0.68;;
64075;SDS011;50327;51.328;12.324;2023-02-18T10:30:36;4.40;;;0.52;;
64075;SDS011;50327;51.328;12.324;2023-02-18T10:35:53;0.40;;;0.40;;
64075;SDS011;50327;51.328;12.324;2023-02-18T10:41:33;0.45;;;0.40;;
64075;SDS011;50327;51.328;12.324;2023-02-18T10:44:29;0.40;;;0.40;;
64075;SDS011;50327;51.328;12.324;2023-02-18T10:52:40;1.67;;;0.30;;
64075;SDS011;50327;51.328;12.324;2023-02-18T10:55:15;0.30;;;0.30;;
64075;SDS011;50327;51.328;12.324;2023-02-18T10:57:50;0.47;;;0.40;;
64075;SDS011;50327;51.328;12.324;2023-02-18T11:02:42;0.40;;;0.40;;
64075;SDS011;50327;51.328;12.324;2023-02-18T11:05:42;1.10;;;0.73;;
64075;SDS011;50327;51.328;12.324;2023-02-18T11:08:00;0.47;;;0.47;;
64075;SDS011;50327;51.328;12.324;2023-02-18T11:10:31;1.40;;;0.50;;
64075;SDS011;50327;51.328;12.324;2023-02-18T11:13:00;0.68;;;0.50;;
64075;SDS011;50327;51.328;12.324;2023-02-18T11:15:29;0.70;;;0.55;;
64075;SDS011;50327;51.328;12.324;2023-02-18T11:18:10;0.57;;;0.50;;
64075;SDS011;50327;51.328;12.324;2023-02-18T11:20:38;1.38;;;0.60;;
64075;SDS011;50327;51.328;12.324;2023-02-18T11:25:30;0.57;;;0.40;;
64075;SDS011;50327;51.328;12.324;2023-02-18T11:28:02;1.13;;;0.80;;
64075;SDS011;50327;51.328;12.324;2023-02-18T11:30:52;1.25;;;0.70;;
64075;SDS011;50327;51.328;12.324;2023-02-18T11:33:22;0.80;;;0.60;;
64075;SDS011;50327;51.328;12.324;2023-02-18T11:35:54;0.63;;;0.52;;
64075;SDS011;50327;51.328;12.324;2023-02-18T11:38:22;1.27;;;0.45;;
64075;SDS011;50327;51.328;12.324;2023-02-18T11:41:00;0.68;;;0.60;;
64075;SDS011;50327;51.328;12.324;2023-02-18T11:43:31;2.67;;;0.30;;
64075;SDS011;50327;51.328;12.324;2023-02-18T11:46:11;0.77;;;0.40;;
64075;SDS011;50327;51.328;12.324;2023-02-18T11:48:44;0.47;;;0.47;;
64075;SDS011;50327;51.328;12.324;2023-02-18T11:51:33;0.47;;;0.47;;
64075;SDS011;50327;51.328;12.324;2023-02-18T11:56:56;0.77;;;0.50;;
64075;SDS011;50327;51.328;12.324;2023-02-18T11:59:25;0.98;;;0.43;;
64075;SDS011;50327;51.328;12.324;2023-02-18T12:02:10;0.67;;;0.50;;
64075;SDS011;50327;51.328;12.324;2023-02-18T12:04:51;1.65;;;0.50;;
64075;SDS011;50327;51.328;12.324;2023-02-18T12:07:35;0.50;;;0.50;;
64075;SDS011;50327;51.328;12.324;2023-02-18T12:10:11;2.17;;;0.60;;
64075;SDS011;50327;51.328;12.324;2023-02-18T12:12:50;0.40;;;0.40;;
64075;SDS011;50327;51.328;12.324;2023-02-18T12:15:19;0.38;;;0.30;;
64075;SDS011;50327;51.328;12.324;2023-02-18T12:18:06;1.92;;;0.52;;
64075;SDS011;50327;51.328;12.324;2023-02-18T12:20:40;0.30;;;0.30;;
64075;SDS011;50327;51.328;12.324;2023-02-18T12:23:25;0.35;;;0.35;;
64075;SDS011;50327;51.328;12.324;2023-02-18T12:39:30;0.77;;;0.50;;
64075;SDS011;50327;51.328;12.324;2023-02-18T12:44:39;1.55;;;0.90;;
64075;SDS011;50327;51.328;12.324;2023-02-18T12:47:26;0.93;;;0.53;;
64075;SDS011;50327;51.328;12.324;2023-02-18T12:49:59;0.47;;;0.47;;
64075;SDS011;50327;51.328;12.324;2023-02-18T12:55:23;0.55;;;0.50;;
64075;SDS011;50327;51.328;12.324;2023-02-18T13:14:19;0.43;;;0.43;;
64075;SDS011;50327;51.328;12.324;2023-02-18T13:16:49;1.13;;;0.68;;
64075;SDS011;50327;51.328;12.324;2023-02-18T13:19:19;0.60;;;0.60;;
64075;SDS011;50327;51.328;12.324;2023-02-18T13:21:48;1.75;;;0.75;;
64075;SDS011;50327;51.328;12.324;2023-02-18T13:24:21;0.43;;;0.40;;
64075;SDS011;50327;51.328;12.324;2023-02-18T13:26:54;1.38;;;0.70;;
64075;SDS011;50327;51.328;12.324;2023-02-18T13:29:41;2.05;;;0.68;;
64075;SDS011;50327;51.328;12.324;2023-02-18T13:34:51;1.50;;;0.60;;
64075;SDS011;50327;51.328;12.324;2023-02-18T13:40:13;2.55;;;0.85;;
64075;SDS011;50327;51.328;12.324;2023-02-18T13:42:43;0.85;;;0.60;;
64075;SDS011;50327;51.328;12.324;2023-02-18T13:45:28;1.42;;;0.70;;
64075;SDS011;50327;51.328;12.324;2023-02-18T13:47:57;0.82;;;0.45;;
64075;SDS011;50327;51.328;12.324;2023-02-18T13:55:39;1.98;;;0.70;;
64075;SDS011;50327;51.328;12.324;2023-02-18T13:58:11;4.00;;;0.93;;
64075;SDS011;50327;51.328;12.324;2023-02-18T14:00:40;1.77;;;0.52;;
64075;SDS011;50327;51.328;12.324;2023-02-18T14:11:56;1.65;;;0.70;;
64075;SDS011;50327;51.328;12.324;2023-02-18T14:14:39;2.20;;;0.68;;
64075;SDS011;50327;51.328;12.324;2023-02-18T14:19:42;1.42;;;0.80;;
64075;SDS011;50327;51.328;12.324;2023-02-18T14:25:21;1.00;;;0.70;;
64075;SDS011;50327;51.328;12.324;2023-02-18T14:28:02;0.73;;;0.57;;
64075;SDS011;50327;51.328;12.324;2023-02-18T14:30:48;1.50;;;0.75;;
64075;SDS011;50327;51.328;12.324;2023-02-18T14:33:15;2.03;;;1.02;;
64075;SDS011;50327;51.328;12.324;2023-02-18T14:35:47;4.50;;;1.27;;
64075;SDS011;50327;51.328;12.324;2023-02-18T14:44:57;1.23;;;0.70;;
64075;SDS011;50327;51.328;12.324;2023-02-18T14:49:51;1.33;;;0.65;;
64075;SDS011;50327;51.328;12.324;2023-02-18T14:55:02;0.85;;;0.70;;
64075;SDS011;50327;51.328;12.324;2023-02-18T14:57:35;3.38;;;0.90;;
64075;SDS011;50327;51.328;12.324;2023-02-18T15:00:03;2.75;;;0.95;;
64075;SDS011;50327;51.328;12.324;2023-02-18T15:02:29;2.55;;;0.73;;
64075;SDS011;50327;51.328;12.324;2023-02-18T15:05:15;0.60;;;0.50;;
64075;SDS011;50327;51.328;12.324;2023-02-18T15:07:54;3.03;;;1.00;;
64075;SDS011;50327;51.328;12.324;2023-02-18T15:10:26;1.88;;;1.00;;
64075;SDS011;50327;51.328;12.324;2023-02-18T15:13:00;2.30;;;0.77;;
64075;SDS011;50327;51.328;12.324;2023-02-18T15:15:27;2.77;;;0.90;;
64075;SDS011;50327;51.328;12.324;2023-02-18T15:17:52;2.65;;;0.60;;
64075;SDS011;50327;51.328;12.324;2023-02-18T15:20:18;2.25;;;0.68;;
64075;SDS011;50327;51.328;12.324;2023-02-18T15:22:43;2.88;;;0.80;;
64075;SDS011;50327;51.328;12.324;2023-02-18T15:25:12;1.00;;;0.70;;
64075;SDS011;50327;51.328;12.324;2023-02-18T15:27:38;3.30;;;0.75;;
64075;SDS011;50327;51.328;12.324;2023-02-18T15:32:44;1.17;;;0.65;;
64075;SDS011;50327;51.328;12.324;2023-02-18T15:35:18;3.15;;;1.08;;
64075;SDS011;50327;51.328;12.324;2023-02-18T15:37:46;0.88;;;0.60;;
64075;SDS011;50327;51.328;12.324;2023-02-18T15:40:17;2.13;;;1.13;;
64075;SDS011;50327;51.328;12.324;2023-02-18T15:42:47;0.60;;;0.52;;
64075;SDS011;50327;51.328;12.324;2023-02-18T15:45:18;1.27;;;1.05;;
64075;SDS011;50327;51.328;12.324;2023-02-18T15:47:48;3.30;;;0.75;;
64075;SDS011;50327;51.328;12.324;2023-02-18T15:50:19;2.50;;;0.93;;
64075;SDS011;50327;51.328;12.324;2023-02-18T15:52:47;1.70;;;0.80;;
64075;SDS011;50327;51.328;12.324;2023-02-18T15:55:17;1.15;;;0.93;;
64075;SDS011;50327;51.328;12.324;2023-02-18T15:57:51;4.57;;;0.90;;
64075;SDS011;50327;51.328;12.324;2023-02-18T16:00:19;1.25;;;0.70;;
64075;SDS011;50327;51.328;12.324;2023-02-18T16:03:21;1.55;;;0.73;;
64075;SDS011;50327;51.328;12.324;2023-02-18T16:08:31;2.15;;;0.73;;
64075;SDS011;50327;51.328;12.324;2023-02-18T16:10:59;3.33;;;0.80;;
64075;SDS011;50327;51.328;12.324;2023-02-18T16:13:27;1.75;;;0.70;;
64075;SDS011;50327;51.328;12.324;2023-02-18T16:15:55;1.20;;;0.68;;
64075;SDS011;50327;51.328;12.324;2023-02-18T16:21:36;1.52;;;0.77;;
64075;SDS011;50327;51.328;12.324;2023-02-18T16:26:52;2.38;;;0.82;;
64075;SDS011;50327;51.328;12.324;2023-02-18T16:29:24;3.15;;;0.88;;
64075;SDS011;50327;51.328;12.324;2023-02-18T16:32:06;1.13;;;0.90;;
64075;SDS011;50327;51.328;12.324;2023-02-18T16:34:31;1.52;;;0.80;;
64075;SDS011;50327;51.328;12.324;2023-02-18T16:36:57;1.27;;;0.73;;
64075;SDS011;50327;51.328;12.324;2023-02-18T16:39:41;2.50;;;0.80;;
64075;SDS011;50327;51.328;12.324;2023-02-18T16:42:10;1.70;;;0.70;;
64075;SDS011;50327;51.328;12.324;2023-02-18T16:44:37;2.65;;;0.90;;
64075;SDS011;50327;51.328;12.324;2023-02-18T16:47:02;0.88;;;0.70;;
64075;SDS011;50327;51.328;12.324;2023-02-18T16:49:28;0.95;;;0.70;;
64075;SDS011;50327;51.328;12.324;2023-02-18T16:51:54;1.25;;;0.80;;
64075;SDS011;50327;51.328;12.324;2023-02-18T16:54:20;3.47;;;0.82;;
64075;SDS011;50327;51.328;12.324;2023-02-18T16:56:45;0.60;;;0.60;;
64075;SDS011;50327;51.328;12.324;2023-02-18T16:59:10;1.65;;;0.80;;
64075;SDS011;50327;51.328;12.324;2023-02-18T17:01:37;2.22;;;0.80;;
64075;SDS011;50327;51.328;12.324;2023-02-18T17:04:08;2.45;;;0.93;;
64075;SDS011;50327;51.328;12.324;2023-02-18T17:06:36;1.02;;;0.80;;
64075;SDS011;50327;51.328;12.324;2023-02-18T17:09:14;2.38;;;0.90;;
64075;SDS011;50327;51.328;12.324;2023-02-18T17:14:12;5.93;;;1.05;;